Fecha, hora, temperatura, viento dirección y velocidad, humedad y presión.

  • 16-01-2019 17:00:00 | 11.30°C | Oeste |42.00 km/h | 77.00% | 1005.20 hPa
  • 16-01-2019 16:00:00 | 11.70°C | Oeste |40.00 km/h | 75.00% | 1004.80 hPa
  • 16-01-2019 15:00:00 | 11.70°C | Oeste |34.00 km/h | 76.00% | 1004.80 hPa
  • 16-01-2019 14:00:00 | 11.60°C | Oeste |31.00 km/h | 81.00% | 1005.10 hPa
  • 16-01-2019 13:00:00 | 11.30°C | Oeste |30.00 km/h | 87.00% | 1005.50 hPa
  • 16-01-2019 12:00:00 | 10.40°C | Oeste |23.00 km/h | 87.00% | 1006.20 hPa
  • 16-01-2019 11:00:00 | 10.50°C | Oeste |30.00 km/h | 85.00% | 1005.70 hPa
  • 16-01-2019 10:00:00 | 10.10°C | Oeste |35.00 km/h | 86.00% | 1005.30 hPa
  • 16-01-2019 09:00:00 | 10.00°C | Oeste |32.00 km/h | 86.00% | 1005.20 hPa
  • 16-01-2019 08:00:00 | 11.10°C | Oeste |43.00 km/h | 81.00% | 1004.70 hPa
  • 16-01-2019 07:00:00 | 11.30°C | Oeste |44.00 km/h | 73.00% | 1004.10 hPa
  • 16-01-2019 06:00:00 | 11.30°C | Oeste |41.00 km/h | 72.00% | 1004.40 hPa
  • 16-01-2019 05:00:00 | 10.90°C | Oeste |31.00 km/h | 74.00% | 1005.00 hPa
  • 16-01-2019 04:00:00 | 10.60°C | Oeste |15.00 km/h | 75.00% | 1005.70 hPa
  • 16-01-2019 03:00:00 | 10.00°C | Oeste |18.00 km/h | 78.00% | 1006.00 hPa
  • 16-01-2019 02:00:00 | 9.50°C | Oeste |17.00 km/h | 79.00% | 1006.50 hPa
  • 16-01-2019 01:00:00 | 9.70°C | Oeste |21.00 km/h | 77.00% | 1006.90 hPa
  • 16-01-2019 00:00:00 | 9.90°C | Oeste |18.00 km/h | 77.00% | 1007.20 hPa
  • 15-01-2019 23:00:00 | 9.80°C | Oeste |18.00 km/h | 79.00% | 1007.60 hPa
  • 15-01-2019 22:00:00 | 9.60°C | Sudoeste |5.00 km/h | 78.00% | 1007.70 hPa
  • 15-01-2019 21:00:00 | 10.20°C | Sudoeste |6.00 km/h | 76.00% | 1007.90 hPa
  • 15-01-2019 20:00:00 | 9.90°C | Sudeste |14.00 km/h | 74.00% | 1007.60 hPa
  • 15-01-2019 19:00:00 | 9.70°C | Sudeste |17.00 km/h | 76.00% | 1007.50 hPa
  • 15-01-2019 18:00:00 | 10.40°C | Sudeste |20.00 km/h | 76.00% | 1007.50 hPa
    • diseño web asturias Información sobre el estado de las mareas, altura de la marejada, temperatura del agua y otros datos de Gijón en Asturias.

      Surf Gijón